Data for 09/01/2005

Time Sea-Level Adjusted Pressure Absolute Pressure Temperature Relative Humidity Dew Point   
(mb) (inHg) (mb) (inHg) (C) (F) (%) (C) (F)
00:05 1021 30.15 851 25.13 11.2 52.1 51 1.6 34.8
00:10 1021 30.15 851 25.13 11.3 52.4 51 1.5 34.7
00:15 1021 30.15 851 25.13 11.6 52.9 50 1.5 34.7
00:20 1021 30.15 851 25.13 11.8 53.2 47 0.9 33.6
00:25 1021 30.15 851 25.13 12 53.6 48 1.4 34.4
00:30 1021 30.15 851 25.13 11.9 53.4 47 1 33.8
00:35 1022 30.18 851 25.13 11.7 53.1 49 1.4 34.6
00:40 1022 30.18 851 25.13 11.7 53 48 1.1 33.9
00:45 1022 30.18 851 25.13 11.4 52.5 54 2.4 36.3
00:50 1022 30.18 851 25.13 10.7 51.3 54 1.8 35.3
00:55 1022 30.18 851 25.13 10.4 50.7 56 2.1 35.8
01:00 1022 30.18 851 25.13 10.2 50.3 57 2 35.6
01:05 1022 30.18 851 25.13 10.2 50.4 54 1.4 34.5
01:10 1022 30.18 851 25.13 10.1 50.2 56 1.8 35.3
01:15 1022 30.18 851 25.13 10.3 50.5 56 2 35.6
01:20 1022 30.18 851 25.13 9.8 49.6 58 2.1 35.7
01:25 1022 30.18 851 25.13 9.6 49.3 58 1.8 35.3
01:30 1022 30.18 851 25.13 9.5 49 59 1.9 35.4
01:35 1022 30.18 851 25.13 9.3 48.7 59 1.7 35
01:40 1022 30.18 851 25.13 9.1 48.4 59 1.6 34.9
01:45 1022 30.18 851 25.13 9.2 48.6 57 1.3 34.3
01:50 1022 30.18 851 25.13 9.3 48.8 59 1.8 35.3
01:55 1022 30.18 851 25.13 8.9 48 62 2 35.6
02:00 1022 30.18 851 25.13 8.7 47.7 61 1.7 35
02:05 1022 30.18 851 25.13 8.8 47.8 61 1.7 35
02:10 1022 30.18 851 25.13 8.8 47.9 62 1.9 35.4
02:15 1022 30.18 851 25.13 8.7 47.6 61 1.5 34.7
02:20 1022 30.18 851 25.13 9 48.2 59 1.4 34.5
02:25 1022 30.18 851 25.13 9 48.2 59 1.5 34.7
02:30 1022 30.18 851 25.13 8.9 48.1 59 1.3 34.3
02:35 1022 30.18 851 25.13 9 48.1 58 1.3 34.3
02:40 1022 30.18 851 25.13 9.4 48.8 54 0.6 33.2
02:45 1022 30.18 851 25.13 9.7 49.5 55 1 33.8
02:50 1022 30.18 851 25.13 9.8 49.6 54 0.9 33.6
02:55 1022 30.18 851 25.13 10.2 50.3 53 1.2 34.2
03:00 1022 30.18 851 25.13 9.9 49.9 54 1.2 34.2
03:05 1022 30.18 851 25.13 9.5 49.2 58 1.6 34.9
03:10 1022 30.18 851 25.13 9.1 48.4 59 1.5 34.8
03:15 1022 30.18 851 25.13 8.9 48.1 59 1.5 34.7
03:20 1022 30.18 851 25.13 8.6 47.5 63 1.9 35.5
03:25 1022 30.18 851 25.13 8.3 46.9 63 1.7 35
03:30 1022 30.18 851 25.13 8.2 46.7 63 1.6 34.8
03:35 1022 30.18 851 25.13 8.5 47.3 60 1.2 34.2
03:40 1022 30.18 851 25.13 8.8 47.8 59 1.3 34.3
03:45 1022 30.18 851 25.13 8.9 48 59 1.3 34.3
03:50 1022 30.18 851 25.13 9.1 48.3 59 1.4 34.6
03:55 1022 30.18 851 25.13 8.7 47.7 62 1.9 35.5
04:00 1022 30.18 851 25.13 8.6 47.4 61 1.6 34.8
04:05 1022 30.18 851 25.13 9 48.2 58 1.2 34.1
04:10 1022 30.18 851 25.13 9.2 48.5 59 1.6 34.9
04:15 1022 30.18 851 25.13 8.6 47.6 61 1.7 35
04:20 1022 30.18 851 25.13 8.4 47.1 62 1.6 34.8
04:25 1022 30.18 851 25.13 8.3 46.9 63 1.7 35.1
04:30 1022 30.18 851 25.13 8.2 46.8 61 1.3 34.3
04:35 1022 30.18 851 25.13 8.6 47.5 60 1.3 34.3
04:40 1022 30.18 851 25.13 8.6 47.6 60 1.4 34.5
04:45 1022 30.18 851 25.13 8.7 47.7 60 1.3 34.4
04:50 1022 30.18 851 25.13 8.9 48.1 58 1.2 34.2
04:55 1022 30.18 851 25.13 9.3 48.8 57 1.3 34.3
05:00 1022 30.18 851 25.13 9.4 49 56 1.2 34.1
05:05 1022 30.18 851 25.13 9.8 49.7 54 1 33.9
05:10 1022 30.18 851 25.13 9.6 49.2 57 1.6 34.8
05:15 1022 30.18 851 25.13 9.4 48.8 56 1.1 34
05:20 1022 30.18 851 25.13 9.7 49.5 54 0.9 33.6
05:25 1022 30.18 851 25.13 9.7 49.4 56 1.3 34.3
05:30 1022 30.18 851 25.13 9.3 48.7 57 1.2 34.1
05:35 1022 30.18 851 25.13 9.3 48.7 57 1.2 34.2
05:40 1022 30.18 851 25.13 9.4 48.8 56 1 33.9
05:45 1022 30.18 851 25.13 9.4 48.9 56 1.1 33.9
05:50 1022 30.18 851 25.13 9.2 48.5 59 1.6 34.9
05:55 1022 30.18 851 25.13 8.7 47.7 58 1 33.7
06:00 1022 30.18 851 25.13 8.8 47.9 59 1.3 34.3
06:05 1022 30.18 851 25.13 8.5 47.3 61 1.4 34.5
06:10 1022 30.18 851 25.13 8.1 46.6 63 1.6 34.9
06:15 1022 30.18 851 25.13 8.3 46.9 60 1 33.8
06:20 1022 30.18 851 25.13 8.4 47.2 60 1.1 34
06:25 1022 30.18 851 25.13 8.7 47.7 58 0.9 33.6
06:30 1022 30.18 851 25.13 8.7 47.6 60 1.3 34.3
06:35 1022 30.18 851 25.13 8.3 47 60 1.1 34
06:40 1022 30.18 851 25.13 8.2 46.8 61 1.3 34.3
06:45 1022 30.18 851 25.13 7.9 46.2 64 1.4 34.6
06:50 1022 30.18 851 25.13 8.3 47 58 0.5 32.9
06:55 1022 30.18 851 25.13 9.1 48.3 57 0.9 33.7
07:00 1022 30.18 851 25.13 9.2 48.5 56 0.9 33.6
07:05 1022 30.18 851 25.13 9 48.1 56 0.7 33.3
07:10 1022 30.18 851 25.13 9.3 48.7 58 1.4 34.5
07:15 1022 30.18 851 25.13 9.1 48.3 57 0.9 33.7
07:20 1022 30.18 851 25.13 8.8 47.9 59 1.3 34.4
07:25 1022 30.18 851 25.13 8.7 47.7 58 0.9 33.6
07:30 1022 30.18 851 25.13 9.2 48.5 56 1 33.8
07:35 1022 30.18 851 25.13 9.4 48.9 56 1.2 34.1
07:40 1022 30.18 851 25.13 9.2 48.6 57 1.2 34.2
07:45 1022 30.18 851 25.13 9.1 48.3 59 1.5 34.7
07:50 1022 30.18 851 25.13 9 48.1 59 1.4 34.5
07:55 1022 30.18 851 25.13 9 48.1 60 1.7 35.1
08:00 1022 30.18 851 25.13 9 48.2 60 1.7 35
08:05 1022 30.18 851 25.13 9.6 49.2 58 1.7 35.1
08:10 1022 30.18 852 25.16 10.2 50.4 56 2 35.6
08:15 1022 30.18 852 25.16 10.6 51 57 2.4 36.2
08:20 1022 30.18 852 25.16 10.6 51.1 55 2.1 35.8
08:25 1022 30.18 852 25.16 10.5 51 57 2.5 36.5
08:30 1022 30.18 852 25.16 10.4 50.8 58 2.5 36.5
08:35 1022 30.18 852 25.16 10.7 51.2 56 2.2 36
08:40 1022 30.18 852 25.16 10.9 51.7 55 2.2 36
08:45 1022 30.18 852 25.16 11.3 52.3 54 2.3 36.2
08:50 1022 30.18 852 25.16 11.6 53 52 2.2 36
08:55 1022 30.18 852 25.16 12.2 54 51 2.5 36.6
09:00 1022 30.18 852 25.16 12.8 55 51 2.9 37.2
09:05 1022 30.18 852 25.16 12.8 55.1 51 3 37.3
09:10 1022 30.18 851 25.13 13.7 56.6 47 2.8 37
09:15 1022 30.18 851 25.13 14.4 57.9 45 2.8 37
09:20 1022 30.18 852 25.16 14.4 57.9 46 2.9 37.2
09:25 1022 30.18 852 25.16 14.9 58.8 42 2.2 35.9
09:30 1022 30.18 852 25.16 14.7 58.5 43 2.4 36.4
09:35 1022 30.18 852 25.16 14.6 58.3 45 3 37.4
09:40 1022 30.18 852 25.16 15.3 59.6 44 3.2 37.7
09:45 1022 30.18 852 25.16 15.4 59.7 45 3.8 38.8
09:50 1022 30.18 851 25.13 14.8 58.7 46 3.3 37.9
09:55 1022 30.18 851 25.13 14.7 58.5 43 2.4 36.4
10:00 1022 30.18 851 25.13 14.7 58.5 44 2.6 36.7
10:05 1022 30.18 851 25.13 15.2 59.3 41 2.2 35.9
10:10 1022 30.18 851 25.13 16.1 61 39 2.4 36.3
10:15 1022 30.18 851 25.13 16 60.7 39 2.3 36.1
10:20 1022 30.18 851 25.13 16.5 61.7 37 2 35.7
10:25 1022 30.18 851 25.13 16.5 61.8 38 2.4 36.3
10:30 1022 30.18 851 25.13 17.4 63.3 36 2.3 36.1
10:35 1022 30.18 851 25.13 18.3 64.9 35 2.6 36.6
10:40 1022 30.18 851 25.13 18.3 65 34 2.4 36.4
10:45 1022 30.18 851 25.13 18.6 65.5 34 2.4 36.4
10:50 1022 30.18 851 25.13 18.7 65.6 35 3 37.4
10:55 1022 30.18 851 25.13 18.6 65.5 36 3.3 37.9
11:00 1022 30.18 851 25.13 18.3 65 35 2.9 37.2
11:05 1022 30.18 851 25.13 18.6 65.6 35 3.1 37.5
11:10 1022 30.18 851 25.13 18.3 65 36 3.2 37.8
11:15 1022 30.18 851 25.13 18.5 65.3 35 3 37.5
11:20 1022 30.18 851 25.13 19.2 66.5 34 3.1 37.5
11:25 1022 30.18 851 25.13 19.1 66.4 36 3.7 38.7
11:30 1022 30.18 851 25.13 19 66.1 35 3.4 38.2
11:35 1022 30.18 851 25.13 19.5 67.1 33 3 37.4
11:40 1022 30.18 851 25.13 19.6 67.2 35 4 39.2
11:45 1022 30.18 851 25.13 19 66.2 36 3.8 38.8
11:50 1022 30.18 851 25.13 19.2 66.5 34 3.1 37.5
11:55 1022 30.18 851 25.13 19.6 67.2 36 4.1 39.4
12:00 1022 30.18 851 25.13 20.1 68.2 33 3.5 38.3
12:05 1022 30.18 851 25.13 20.9 69.6 32 3.6 38.5
12:10 1021 30.15 851 25.13 20.8 69.4 31 3.4 38.1
12:15 1021 30.15 851 25.13 20.8 69.4 30 2.7 36.9
12:20 1021 30.15 851 25.13 20.8 69.5 30 2.9 37.2
12:25 1021 30.15 851 25.13 21.1 70 31 3.5 38.4
12:30 1021 30.15 850 25.1 21.4 70.6 30 3.5 38.4
12:35 1021 30.15 850 25.1 20.7 69.3 33 4.1 39.4
12:40 1021 30.15 850 25.1 21 69.8 31 3.5 38.2
12:45 1021 30.15 850 25.1 21.7 71 30 3.6 38.5
12:50 1021 30.15 850 25.1 21.9 71.5 30 3.9 39
12:55 1021 30.15 850 25.1 22 71.5 30 3.9 39
13:00 1021 30.15 850 25.1 22.2 72 30 3.8 38.8
13:05 1021 30.15 850 25.1 22.6 72.7 27 3 37.4
13:10 1021 30.15 850 25.1 21.8 71.3 29 3.2 37.7
13:15 1021 30.15 850 25.1 21.8 71.2 29 3.1 37.6
13:20 1021 30.15 850 25.1 21.7 71 29 2.9 37.1
13:25 1021 30.15 850 25.1 22.5 72.4 26 2.3 36.1
13:30 1021 30.15 850 25.1 23.1 73.5 27 3.1 37.6
13:35 1021 30.15 850 25.1 22.5 72.4 27 2.6 36.6
13:40 1021 30.15 850 25.1 22.9 73.2 25 2.3 36.1
13:45 1021 30.15 850 25.1 22.7 72.8 26 2.2 35.9
13:50 1021 30.15 850 25.1 21.8 71.3 26 1.6 34.9
13:55 1020 30.12 850 25.1 23.1 73.6 26 2.6 36.7
14:00 1020 30.12 850 25.1 23.9 75 24 2.3 36.2
14:05 1020 30.12 850 25.1 23.1 73.6 24 1.8 35.2
14:10 1020 30.12 849 25.07 23 73.4 25 1.9 35.4
14:15 1020 30.12 849 25.07 22.5 72.5 25 1.5 34.7
14:20 1020 30.12 849 25.07 22.9 73.3 24 1.3 34.4
14:25 1020 30.12 849 25.07 23.6 74.4 23 1.3 34.3
14:30 1020 30.12 849 25.07 23.9 75 23 1.6 34.9
14:35 1020 30.12 849 25.07 24.6 76.2 22 1.6 34.8
14:40 1020 30.12 849 25.07 24.4 76 21 1.2 34.1
14:45 1020 30.12 849 25.07 23.5 74.3 22 0.9 33.6
14:50 1020 30.12 849 25.07 24.2 75.5 21 0.7 33.3
14:55 1020 30.12 849 25.07 24.2 75.6 22 1.3 34.3
15:00 1020 30.12 849 25.07 23.9 75 22 1.3 34.4
15:05 1019 30.09 849 25.07 24.2 75.5 22 1.2 34.2
15:10 1019 30.09 849 25.07 25.1 77.2 21 1.4 34.5
15:15 1019 30.09 849 25.07 25.5 77.9 20 1.4 34.6
15:20 1019 30.09 848 25.04 24.9 76.7 20 0.6 33.1
15:25 1019 30.09 849 25.07 25.2 77.3 20 0.9 33.7
15:30 1019 30.09 849 25.07 25.4 77.7 21 1.6 35
15:35 1019 30.09 849 25.07 25.3 77.5 20 1.3 34.3
15:40 1019 30.09 848 25.04 25.6 78 20 1.1 34
15:45 1019 30.09 848 25.04 25.5 77.8 21 1.7 35.1
15:50 1019 30.09 848 25.04 25.5 77.8 20 0.8 33.4
15:55 1019 30.09 848 25.04 25.8 78.4 19 0.9 33.6
16:00 1019 30.09 848 25.04 25.8 78.5 19 0.9 33.5
16:05 1019 30.09 848 25.04 25.1 77.2 20 1.1 34
16:10 1019 30.09 848 25.04 25.1 77.1 21 1.2 34.2
16:15 1019 30.09 848 25.04 25.4 77.7 20 1.3 34.3
16:20 1019 30.09 848 25.04 25.3 77.6 21 1.5 34.7
16:25 1019 30.09 848 25.04 25.2 77.3 21 1.7 35.1
16:30 1019 30.09 848 25.04 25.6 78.1 20 1.2 34.1
16:35 1019 30.09 848 25.04 26.1 79 20 1.7 35
16:40 1019 30.09 848 25.04 25.7 78.3 21 1.7 35.1
16:45 1019 30.09 848 25.04 25.6 78.1 21 1.9 35.4
16:50 1019 30.09 848 25.04 25.3 77.5 20 0.9 33.5
16:55 1019 30.09 848 25.04 25.5 77.8 20 0.9 33.6
17:00 1019 30.09 848 25.04 25.9 78.6 19 0.4 32.8
17:05 1019 30.09 848 25.04 26 78.8 18 0.1 32.2
17:10 1019 30.09 848 25.04 25.6 78 20 0.9 33.7
17:15 1019 30.09 848 25.04 25.3 77.6 20 1.2 34.2
17:20 1019 30.09 848 25.04 25.2 77.4 20 1.2 34.2
17:25 1019 30.09 848 25.04 25.6 78.1 19 0.8 33.4
17:30 1019 30.09 848 25.04 25.7 78.3 20 1.2 34.2
17:35 1019 30.09 848 25.04 25.7 78.3 19 0.9 33.6
17:40 1019 30.09 848 25.04 25.7 78.3 19 0.5 32.9
17:45 1019 30.09 848 25.04 25.8 78.4 20 1.5 34.7
17:50 1019 30.09 848 25.04 25.8 78.4 19 0.4 32.7
17:55 1019 30.09 848 25.04 25.6 78.1 19 0.7 33.3
18:00 1019 30.09 848 25.04 25.5 77.9 18 -0.1 31.8
18:05 1019 30.09 848 25.04 25.6 78.1 19 0.4 32.7
18:10 1019 30.09 848 25.04 25.6 78 19 0.5 32.8
18:15 1019 30.09 848 25.04 25.2 77.4 20 0.7 33.2
18:20 1019 30.09 848 25.04 25.1 77.3 19 0.4 32.7
18:25 1019 30.09 848 25.04 25.1 77.3 20 0.8 33.5
18:30 1019 30.09 848 25.04 24.5 76.2 20 0.6 33
18:35 1019 30.09 848 25.04 24 75.2 21 0.6 33.1
18:40 1019 30.09 848 25.04 24 75.2 22 1.3 34.4
18:45 1019 30.09 848 25.04 24 75.2 22 1 33.7
18:50 1019 30.09 848 25.04 24.1 75.3 22 1 33.8
18:55 1019 30.09 848 25.04 24 75.3 23 1.6 35
19:00 1019 30.09 848 25.04 23.9 75 23 1.9 35.4
19:05 1019 30.09 848 25.04 23.7 74.7 25 2.7 36.8
19:10 1019 30.09 848 25.04 23.5 74.2 27 3.4 38.2
19:15 1019 30.09 848 25.04 23.2 73.8 24 1.9 35.5
19:20 1019 30.09 848 25.04 23 73.5 24 1.6 35
19:25 1019 30.09 848 25.04 22.9 73.2 25 2.3 36.1
19:30 1019 30.09 848 25.04 22.8 73 26 2.8 37
19:35 1019 30.09 848 25.04 22.7 72.9 26 2.2 36
19:40 1019 30.09 848 25.04 22.7 72.8 28 3.7 38.6
19:45 1019 30.09 848 25.04 22.3 72.2 29 3.8 38.8
19:50 1019 30.09 848 25.04 22 71.5 28 2.7 36.9
19:55 1019 30.09 848 25.04 21.8 71.3 28 3 37.3
20:00 1019 30.09 848 25.04 21.6 70.9 30 3.4 38.1
20:05 1019 30.09 848 25.04 21.4 70.4 30 3.1 37.6
20:10 1019 30.09 848 25.04 21 69.7 35 5.2 41.4
20:15 1019 30.09 848 25.04 20.6 69 41 7 44.5
20:20 1019 30.09 848 25.04 20.3 68.6 32 3.3 38
20:25 1019 30.09 848 25.04 20.6 69.1 38 6 42.8
20:30 1019 30.09 848 25.04 19.2 66.6 47 7.8 46
20:35 1019 30.09 848 25.04 17.7 63.9 51 7.7 45.9
20:40 1019 30.09 848 25.04 17.2 62.9 50 6.8 44.2
20:45 1019 30.09 848 25.04 16.7 62 48 5.8 42.5
20:50 1019 30.09 848 25.04 16.6 61.8 53 6.9 44.4
20:55 1019 30.09 848 25.04 16.4 61.5 50 6.2 43.2
21:00 1019 30.09 848 25.04 16.2 61.1 44 4 39.2
21:05 1019 30.09 848 25.04 16.8 62.3 38 2.7 36.8
21:10 1019 30.09 848 25.04 17 62.5 39 2.9 37.3
21:15 1019 30.09 848 25.04 17.4 63.2 40 3.6 38.5
21:20 1019 30.09 848 25.04 18.1 64.6 34 2.2 36
21:25 1019 30.09 848 25.04 17.3 63.1 38 2.9 37.3
21:30 1019 30.09 848 25.04 16.7 62 40 3.1 37.6
21:35 1019 30.09 848 25.04 16.3 61.4 41 3 37.4
21:40 1019 30.09 848 25.04 15.9 60.7 41 2.8 37
21:45 1019 30.09 849 25.07 15.9 60.7 41 2.9 37.2
21:50 1019 30.09 849 25.07 15.9 60.6 42 2.9 37.2
21:55 1019 30.09 849 25.07 15.9 60.6 41 2.7 36.8
22:00 1019 30.09 849 25.07 15.8 60.4 41 2.8 37.1
22:05 1019 30.09 849 25.07 15.9 60.6 41 2.9 37.2
22:10 1019 30.09 849 25.07 16.1 61 38 2 35.6
22:15 1019 30.09 849 25.07 16.1 61 44 4 39.2
22:20 1019 30.09 849 25.07 15.8 60.4 43 3.2 37.7
22:25 1019 30.09 849 25.07 15.3 59.5 42 2.6 36.7
22:30 1019 30.09 849 25.07 15.7 60.2 41 2.5 36.4
22:35 1019 30.09 849 25.07 16.3 61.3 38 2.1 35.7
22:40 1019 30.09 848 25.04 16.2 61.2 40 2.8 37.1
22:45 1019 30.09 848 25.04 15.8 60.4 41 2.8 37
22:50 1019 30.09 848 25.04 15.5 59.8 43 3.1 37.5
22:55 1019 30.09 848 25.04 15 59 47 4 39.2
23:00 1019 30.09 848 25.04 14.6 58.3 44 2.5 36.5
23:05 1019 30.09 849 25.07 14.5 58.1 45 2.9 37.2
23:10 1019 30.09 849 25.07 14.6 58.2 43 2.3 36.1
23:15 1019 30.09 849 25.07 14.5 58 43 2 35.6
23:20 1019 30.09 849 25.07 14.9 58.9 40 1.6 34.9
23:25 1019 30.09 849 25.07 14.9 58.8 41 1.9 35.4
23:30 1019 30.09 849 25.07 15 59 38 0.8 33.4
23:35 1019 30.09 848 25.04 15.4 59.7 38 1.2 34.1
23:40 1019 30.09 848 25.04 15.3 59.5 43 3 37.4
23:45 1019 30.09 848 25.04 15.3 59.5 38 1 33.8
23:50 1019 30.09 848 25.04 15.3 59.6 37 0.8 33.4
23:55 1019 30.09 848 25.04 15.7 60.2 35 0.2 32.4
24:00 1019 30.09 848 25.04 16.2 61.2 34 0.4 32.7